Alum Ridge, VA

9:54 PM EDT on October 25, 2014 (GMT -0400)
Twin County | Change Station
CLOSE
Current Station
Airport
Location: Galax,
Elevation: 2690 ft
Nearby Weather Stations
Active Advisory: Special Statement

Elev 2690 ft 36.77 °N, 80.82 °W | Updated 19 minutes ago

Clear
Clear
57 °F
Feels Like 57 °F
N
9
Wind Variable Wind from West
Gusts 18 mph

Today
High -- | Low -- °F
--% Chance of Precip.
Yesterday
High -- | Low -- °F
Precip. -- in
7:38 AM 6:31 PM
Waxing Crescent, 5% visible
Pressure 29.96 in
Visibility 10.0 miles
Clouds Clear
Dew Point 47 °F
Humidity 68%
Rainfall 0.00 in
Snow Depth Not available.
UV 0 out of 12
Pollen 1.60 out of 12
Air Quality Not available.
Flu Activity Sporadic
METAR KHLX 260135Z AUTO 28008G16KT 10SM CLR 14/08 A2996 RMK AO2 T01400082

More Conditions Fewer Conditions

Pressure 29.96 in
Visibility 10.0 miles
Clouds Clear
Dew Point 47 °F
Humidity 68%
Rainfall 0.00 in
Snow Depth Not available.
UV 0 out of 12
Pollen 1.60 out of 12
Air Quality Not available.
Flu Activity Sporadic
METAR KHLX 260135Z AUTO 28008G16KT 10SM CLR 14/08 A2996 RMK AO2 T01400082

More Conditions Fewer Conditions

10-Day Weather Forecast

Almanac

Astronomy

Oct. 25, 2014 Rise Set
Actual Time 7:38 AM EDT 6:31 PM EDT
Civil Twilight 7:11 AM EDT 6:58 PM EDT
Nautical Twilight 6:41 AM EDT 7:28 PM EDT
Astronomical Twilight 6:11 AM EDT 7:58 PM EDT
Moon 9:13 AM EDT (10/25) 7:55 PM EDT (10/25)
Length of Visible Light 11h 46m
Length of Day
10h 53m
Tomorrow will be 2m 10s shorter.
Waxing Crescent, 5% of the Moon is Illuminated
Today
Waxing Crescent
Oct 30
First Quarter
Nov 6
Full
Nov 14
Last Quarter
Nov 22
New

Today's Extremes

State Highs State Lows

Community

WunderPhotos

Upload Photos

1,765,071 photos uploaded!

Nearby

Snow Depth

Station Depth Elevation
No new snow has been reported.

Earthquake Activity

City Distance Mag. Time & Date
No recent earthquake activity has been reported nearby.
Minimum magnitude displayed is 2.5.

Coastal Water Temperatures

Place Temperature
No Stations Reporting

Nearby Weather Stations